Time;durP1;ratioP1;P1;durP2;ratioP2;P2;SDS_P1;SDS_P2;PMS_P1;PMS_P2;Temp;Humidity;BMP_temperature;BMP_pressure;BME280_temperature;BME280_humidity;BME280_pressure;Samples;Min_cycle;Max_cycle;Signal;HPM_P1;HPM_P2
2022/08/06 00:00:35;;;;;;;7.72;4.43;;;12.20;99.90;;;;;;5051392;28;20041;-64
2022/08/06 00:03:02;;;;;;;5.38;4.18;;;12.10;99.90;;;;;;5047579;28;20442;-63
2022/08/06 00:05:27;;;;;;;6.57;4.38;;;12.00;99.90;;;;;;5046446;28;20115;-64
2022/08/06 00:07:55;;;;;;;6.57;4.20;;;11.90;99.90;;;;;;5050897;28;20116;-64
2022/08/06 00:10:20;;;;;;;5.40;3.90;;;11.50;99.90;;;;;;5048483;28;20037;-64
2022/08/06 00:12:46;;;;;;;7.07;4.07;;;11.20;99.90;;;;;;5042600;28;20063;-65
2022/08/06 00:15:12;;;;;;;6.90;4.28;;;11.20;99.90;;;;;;5050661;28;20068;-64
2022/08/06 00:17:38;;;;;;;6.07;4.20;;;11.20;99.90;;;;;;5051136;28;20040;-65
2022/08/06 00:20:06;;;;;;;6.82;4.40;;;11.20;99.90;;;;;;5050252;28;20051;-65
2022/08/06 00:22:31;;;;;;;7.82;4.40;;;11.10;99.90;;;;;;5047299;28;20041;-64
2022/08/06 00:24:57;;;;;;;7.57;4.30;;;11.10;99.90;;;;;;5050735;28;20044;-64
2022/08/06 00:27:23;;;;;;;6.20;4.05;;;11.00;99.90;;;;;;5044953;28;20543;-64
2022/08/06 00:29:49;;;;;;;5.47;4.00;;;11.00;99.90;;;;;;5049122;28;20411;-64
2022/08/06 00:32:16;;;;;;;6.78;4.10;;;11.00;99.90;;;;;;5050698;28;20083;-64
2022/08/06 00:34:41;;;;;;;8.90;4.13;;;11.00;99.90;;;;;;5051037;28;20076;-65
2022/08/06 00:37:07;;;;;;;7.82;3.95;;;10.90;99.90;;;;;;5036489;28;20076;-64
2022/08/06 00:39:33;;;;;;;8.90;4.25;;;10.90;99.90;;;;;;5037671;28;20090;-64
2022/08/06 00:41:59;;;;;;;7.47;4.38;;;10.90;99.90;;;;;;5050185;28;20037;-65
2022/08/06 00:44:25;;;;;;;9.73;4.60;;;10.90;99.90;;;;;;5049245;28;20040;-65
2022/08/06 00:46:51;;;;;;;5.95;3.88;;;10.80;99.90;;;;;;5057464;28;20029;-65
2022/08/06 00:49:17;;;;;;;7.63;4.38;;;10.80;99.90;;;;;;5054523;28;20527;-65
2022/08/06 00:51:43;;;;;;;7.18;3.88;;;11.00;99.90;;;;;;5053976;28;20384;-64
2022/08/06 00:54:09;;;;;;;5.65;4.20;;;11.00;99.90;;;;;;5064217;28;20083;-64
2022/08/06 00:56:34;;;;;;;9.80;4.30;;;11.00;99.90;;;;;;5040879;28;20484;-64
2022/08/06 00:59:00;;;;;;;9.10;5.53;;;11.00;99.90;;;;;;5054425;28;20063;-65
2022/08/06 01:01:26;;;;;;;7.72;4.70;;;10.90;99.90;;;;;;5050627;28;20501;-64
2022/08/06 01:03:51;;;;;;;5.57;4.75;;;10.80;99.90;;;;;;5053621;28;20122;-64
2022/08/06 01:06:18;;;;;;;7.55;4.88;;;10.80;99.90;;;;;;5054111;28;20044;-64
2022/08/06 01:08:43;;;;;;;7.78;4.80;;;10.70;99.90;;;;;;5051678;28;20045;-64
2022/08/06 01:11:09;;;;;;;6.78;4.50;;;10.50;99.90;;;;;;5053833;28;20395;-64
2022/08/06 01:13:35;;;;;;;6.90;4.40;;;10.50;99.90;;;;;;5052943;28;20029;-64
2022/08/06 01:16:27;;;;;;;6.97;4.57;;;10.40;99.90;;;;;;5036176;28;20071;-64
2022/08/06 01:19:24;;;;;;;10.00;5.00;;;10.30;99.90;;;;;;5045403;28;20041;-64
2022/08/06 01:22:26;;;;;;;8.57;5.45;;;10.30;99.90;;;;;;5053060;28;20491;-64
2022/08/06 01:25:00;;;;;;;8.25;5.63;;;10.20;99.90;;;;;;5055092;28;20465;-65
2022/08/06 01:27:49;;;;;;;10.07;6.32;;;10.30;99.90;;;;;;5056729;28;20491;-65
2022/08/06 01:30:19;;;;;;;7.78;5.45;;;10.30;99.90;;;;;;5046594;28;20041;-64
2022/08/06 01:32:53;;;;;;;7.20;5.22;;;10.30;99.90;;;;;;5053463;28;20511;-65
2022/08/06 01:35:26;;;;;;;7.72;5.57;;;10.30;99.90;;;;;;5051302;28;20438;-64
2022/08/06 01:38:03;;;;;;;10.45;5.88;;;10.30;99.90;;;;;;5053138;28;20543;-65
2022/08/06 01:40:32;;;;;;;9.13;5.35;;;10.20;99.90;;;;;;5053857;28;20719;-64
2022/08/06 01:43:00;;;;;;;10.20;5.70;;;10.20;99.90;;;;;;5050659;28;20045;-64
2022/08/06 01:45:30;;;;;;;12.23;6.53;;;10.10;99.90;;;;;;5047289;28;20033;-64
2022/08/06 01:48:01;;;;;;;9.50;5.90;;;10.00;99.90;;;;;;5053344;28;20045;-65
2022/08/06 01:50:31;;;;;;;8.13;5.87;;;10.10;99.90;;;;;;5051649;28;20135;-64
2022/08/06 01:53:01;;;;;;;13.43;6.47;;;10.10;99.90;;;;;;5059346;28;20044;-64
2022/08/06 01:55:30;;;;;;;12.85;6.65;;;10.10;99.90;;;;;;5052383;28;20394;-65
2022/08/06 01:57:59;;;;;;;10.25;6.63;;;10.10;99.90;;;;;;5035517;28;20098;-64
2022/08/06 02:00:25;;;;;;;12.68;7.15;;;10.20;99.90;;;;;;5056292;28;20041;-65
2022/08/06 02:02:52;;;;;;;13.43;6.90;;;10.20;99.90;;;;;;5049873;28;20400;-65
2022/08/06 02:05:20;;;;;;;14.68;6.72;;;10.20;99.90;;;;;;5052979;28;20410;-64
2022/08/06 02:07:50;;;;;;;9.05;5.97;;;10.10;99.90;;;;;;5050217;28;20040;-64
2022/08/06 02:10:18;;;;;;;9.35;6.40;;;10.20;99.90;;;;;;5052025;28;20029;-64
2022/08/06 02:12:46;;;;;;;8.10;6.43;;;10.10;99.90;;;;;;5052630;28;20041;-64
2022/08/06 02:15:16;;;;;;;8.75;6.30;;;10.00;99.90;;;;;;5052453;28;20032;-64
2022/08/06 02:17:47;;;;;;;9.35;6.80;;;10.00;99.90;;;;;;5050017;28;20041;-64
2022/08/06 02:20:16;;;;;;;9.90;6.80;;;10.00;99.90;;;;;;5060161;28;20036;-65
2022/08/06 02:22:44;;;;;;;11.10;6.63;;;10.00;99.90;;;;;;5052853;28;20048;-65
2022/08/06 02:25:14;;;;;;;9.00;6.47;;;10.00;99.90;;;;;;5042081;28;20029;-65
2022/08/06 02:27:45;;;;;;;9.13;5.70;;;10.00;99.90;;;;;;5048658;28;20044;-65
2022/08/06 02:30:12;;;;;;;9.25;6.03;;;9.90;99.90;;;;;;5052485;28;20029;-64
2022/08/06 02:32:38;;;;;;;7.53;5.07;;;9.90;99.90;;;;;;5056447;28;20127;-64
2022/08/06 02:35:04;;;;;;;7.25;5.03;;;9.80;99.90;;;;;;5055872;28;20151;-65
2022/08/06 02:37:47;;;;;;;10.93;6.03;;;9.80;99.90;;;;;;5052224;28;20033;-64
2022/08/06 02:40:19;;;;;;;6.20;4.97;;;9.70;99.90;;;;;;5049472;28;20043;-64
2022/08/06 02:43:05;;;;;;;5.35;3.10;;;9.60;99.90;;;;;;5033420;28;20037;-64
2022/08/06 02:45:58;;;;;;;19.73;3.70;;;9.40;99.90;;;;;;5052289;28;20029;-63
2022/08/06 02:48:33;;;;;;;10.85;2.42;;;9.30;99.90;;;;;;5044103;28;20042;-65
2022/08/06 02:51:04;;;;;;;3.10;2.53;;;9.30;99.90;;;;;;5048338;28;20407;-64
2022/08/06 02:53:45;;;;;;;6.95;4.93;;;9.20;99.90;;;;;;5034544;28;20049;-65
2022/08/06 02:56:13;;;;;;;16.17;5.93;;;9.20;99.90;;;;;;5049042;28;20041;-64
2022/08/06 02:58:47;;;;;;;89.50;6.25;;;9.30;99.90;;;;;;5033499;28;20037;-64
2022/08/06 03:01:21;;;;;;;32.03;4.78;;;9.30;99.90;;;;;;5050881;28;20033;-64
2022/08/06 03:03:50;;;;;;;20.15;4.30;;;9.30;99.90;;;;;;5051892;28;20083;-65
2022/08/06 03:06:18;;;;;;;74.80;4.65;;;9.30;99.90;;;;;;5055137;28;21052;-64
2022/08/06 03:08:45;;;;;;;6.63;3.28;;;9.30;99.90;;;;;;5055109;28;20033;-64
2022/08/06 03:11:11;;;;;;;37.05;4.10;;;9.30;99.90;;;;;;5051362;28;20033;-64
2022/08/06 03:13:38;;;;;;;7.25;4.50;;;9.20;99.90;;;;;;5050089;28;20037;-65
2022/08/06 03:16:05;;;;;;;9.32;5.32;;;9.20;99.90;;;;;;5045637;28;20079;-64
2022/08/06 03:18:33;;;;;;;8.38;5.82;;;9.20;99.90;;;;;;5051477;28;20426;-65
2022/08/06 03:21:01;;;;;;;7.60;5.68;;;9.30;99.90;;;;;;5051319;28;20037;-64
2022/08/06 03:23:29;;;;;;;5.72;4.20;;;9.30;99.90;;;;;;5047914;28;20483;-64
2022/08/06 03:25:56;;;;;;;8.57;5.30;;;9.30;99.90;;;;;;5040851;28;20033;-64
2022/08/06 03:28:24;;;;;;;5.90;4.70;;;9.30;99.90;;;;;;5051377;28;20087;-64
2022/08/06 03:30:50;;;;;;;12.57;3.75;;;9.30;99.90;;;;;;5043880;28;20103;-65
2022/08/06 03:33:17;;;;;;;4.97;3.72;;;9.30;99.90;;;;;;5036732;28;20108;-64
2022/08/06 03:35:44;;;;;;;8.52;4.03;;;9.30;99.90;;;;;;5039133;28;20032;-64
2022/08/06 03:38:12;;;;;;;8.55;5.13;;;9.20;99.90;;;;;;5059637;28;20033;-64
2022/08/06 03:40:42;;;;;;;10.15;5.40;;;9.30;99.90;;;;;;5051187;28;20542;-63
2022/08/06 03:43:08;;;;;;;6.65;4.10;;;9.20;99.90;;;;;;5051741;28;20063;-64
2022/08/06 03:45:37;;;;;;;6.03;4.22;;;9.20;99.90;;;;;;5056749;28;20071;-64
2022/08/06 03:48:06;;;;;;;3.40;2.75;;;9.20;99.90;;;;;;5053476;28;20041;-65
2022/08/06 03:50:38;;;;;;;4.88;2.80;;;9.00;99.90;;;;;;5050989;28;20177;-64
2022/08/06 03:53:05;;;;;;;;;;;8.90;99.90;;;;;;5051151;28;20484;-65
2022/08/06 03:55:34;;;;;;;2.85;2.20;;;8.80;99.90;;;;;;5051272;28;19925;-64
2022/08/06 03:58:03;;;;;;;3.22;2.63;;;8.60;99.90;;;;;;5048241;28;20059;-64
2022/08/06 04:00:34;;;;;;;3.13;2.00;;;8.50;99.90;;;;;;5045231;28;20037;-65
2022/08/06 04:03:02;;;;;;;4.25;2.00;;;8.40;99.90;;;;;;5050909;28;20041;-64
2022/08/06 04:05:30;;;;;;;2.50;2.00;;;8.40;99.90;;;;;;5045398;28;20394;-65
2022/08/06 04:08:00;;;;;;;2.58;1.40;;;8.40;99.90;;;;;;5050573;28;20040;-64
2022/08/06 04:10:33;;;;;;;2.72;2.10;;;8.30;99.90;;;;;;5050925;28;20033;-64
2022/08/06 04:13:00;;;;;;;3.00;2.38;;;8.40;99.90;;;;;;5034681;28;20037;-64
2022/08/06 04:15:26;;;;;;;3.38;2.30;;;8.50;99.90;;;;;;5048991;28;20079;-64
2022/08/06 04:17:54;;;;;;;2.90;2.15;;;8.50;99.90;;;;;;5049807;28;20444;-65
2022/08/06 04:20:22;;;;;;;3.08;2.10;;;8.50;99.90;;;;;;5050296;28;20045;-64
2022/08/06 04:22:48;;;;;;;3.53;2.40;;;8.50;99.90;;;;;;5039192;28;20049;-64
2022/08/06 04:25:14;;;;;;;3.17;2.38;;;8.50;99.90;;;;;;5052886;28;20036;-64
2022/08/06 04:27:42;;;;;;;3.80;2.50;;;8.50;99.90;;;;;;5053214;28;20079;-64
2022/08/06 04:30:09;;;;;;;3.53;2.63;;;8.50;99.90;;;;;;5052945;28;20044;-65
2022/08/06 04:32:36;;;;;;;3.92;3.03;;;8.50;99.90;;;;;;5052818;28;20475;-64
2022/08/06 04:35:04;;;;;;;3.45;2.70;;;8.40;99.90;;;;;;5054631;28;20110;-65
2022/08/06 04:37:30;;;;;;;75.30;3.63;;;8.50;99.90;;;;;;5044114;28;20456;-65
2022/08/06 04:39:57;;;;;;;56.38;3.33;;;8.50;99.90;;;;;;5052574;28;20102;-64
2022/08/06 04:42:24;;;;;;;10.32;2.40;;;8.30;99.90;;;;;;5053870;28;20041;-64
2022/08/06 04:44:51;;;;;;;31.77;3.65;;;8.40;99.90;;;;;;5055033;28;20048;-64
2022/08/06 04:47:16;;;;;;;14.70;2.03;;;8.40;99.90;;;;;;5052225;28;20055;-63
2022/08/06 04:49:42;;;;;;;26.20;2.17;;;8.50;99.90;;;;;;5048117;28;20132;-63
2022/08/06 04:52:07;;;;;;;3.83;2.80;;;8.50;99.90;;;;;;5033155;28;20049;-65
2022/08/06 04:54:33;;;;;;;4.00;2.95;;;8.50;99.90;;;;;;5043958;28;20116;-64
2022/08/06 04:56:59;;;;;;;3.83;2.75;;;8.60;99.90;;;;;;5050917;28;20064;-64
2022/08/06 04:59:24;;;;;;;6.25;2.90;;;8.70;99.90;;;;;;5055666;28;20045;-63
2022/08/06 05:01:50;;;;;;;4.80;3.10;;;8.80;99.90;;;;;;5055842;28;20437;-64
2022/08/06 05:04:16;;;;;;;5.10;3.80;;;8.90;99.90;;;;;;5054085;28;20123;-64
2022/08/06 05:07:04;;;;;;;7.60;4.63;;;9.00;99.90;;;;;;5054900;28;20040;-64
2022/08/06 05:09:30;;;;;;;8.07;5.13;;;9.10;99.90;;;;;;4990884;28;20127;-64
2022/08/06 05:12:11;;;;;;;6.70;4.80;;;9.10;99.90;;;;;;5033395;28;20057;-64
2022/08/06 05:14:42;;;;;;;12.10;5.65;;;9.30;99.90;;;;;;5053510;28;20041;-64
2022/08/06 05:17:13;;;;;;;8.38;5.82;;;9.30;99.90;;;;;;5053766;28;20848;-64
2022/08/06 05:19:46;;;;;;;9.75;6.47;;;9.60;99.90;;;;;;5052082;28;20037;-64
2022/08/06 05:22:15;;;;;;;9.57;6.78;;;9.70;99.90;;;;;;5055416;28;20467;-65
2022/08/06 05:24:41;;;;;;;13.18;8.27;;;9.90;99.90;;;;;;5049681;28;20061;-63
2022/08/06 05:27:09;;;;;;;12.90;8.18;;;10.00;99.90;;;;;;5049710;28;20037;-64
2022/08/06 05:29:35;;;;;;;16.75;8.73;;;10.20;99.90;;;;;;5056909;28;20047;-64
2022/08/06 05:32:02;;;;;;;16.85;9.75;;;10.40;99.90;;;;;;5053886;28;20036;-64
2022/08/06 05:34:28;;;;;;;15.68;8.80;;;10.60;99.90;;;;;;5053372;28;20068;-64
2022/08/06 05:36:53;;;;;;;14.95;8.98;;;10.80;99.90;;;;;;5046990;28;20065;-64
2022/08/06 05:39:20;;;;;;;16.98;9.73;;;10.90;99.90;;;;;;5043118;28;20570;-64
2022/08/06 05:41:46;;;;;;;16.13;8.52;;;11.00;99.90;;;;;;5051858;28;20044;-64
2022/08/06 05:44:12;;;;;;;19.88;9.80;;;11.10;99.90;;;;;;5049355;28;20116;-64
2022/08/06 05:46:44;;;;;;;14.18;9.27;;;11.20;99.90;;;;;;5052001;28;20112;-64
2022/08/06 05:49:14;;;;;;;16.50;8.57;;;11.40;99.90;;;;;;5052985;28;20029;-64
2022/08/06 05:52:13;;;;;;;19.25;9.45;;;11.50;99.90;;;;;;5052986;28;20120;-64
2022/08/06 05:55:02;;;;;;;13.60;8.65;;;11.70;99.90;;;;;;5050519;28;20073;-64
2022/08/06 05:57:31;;;;;;;15.50;8.45;;;11.80;99.90;;;;;;5049900;28;20107;-64
2022/08/06 06:00:08;;;;;;;13.82;8.55;;;11.90;99.90;;;;;;5035375;28;20041;-65
2022/08/06 06:02:37;;;;;;;11.13;7.82;;;12.00;99.90;;;;;;5048818;28;20511;-64
2022/08/06 06:05:03;;;;;;;15.07;8.30;;;12.20;99.90;;;;;;5051178;28;20041;-64
2022/08/06 06:07:30;;;;;;;12.77;8.40;;;12.30;99.90;;;;;;5053094;28;20036;-64
2022/08/06 06:09:56;;;;;;;14.88;8.55;;;12.50;99.90;;;;;;5055198;28;20045;-64
2022/08/06 06:12:22;;;;;;;12.25;8.27;;;12.70;99.90;;;;;;5057522;28;20483;-64
2022/08/06 06:14:50;;;;;;;11.95;7.63;;;12.80;99.90;;;;;;5051966;28;20461;-64
2022/08/06 06:17:41;;;;;;;11.63;7.75;;;13.00;99.90;;;;;;5041540;28;20113;-64
2022/08/06 06:20:19;;;;;;;9.90;6.72;;;13.20;99.90;;;;;;5041869;28;20553;-64
2022/08/06 06:23:01;;;;;;;15.02;7.82;;;13.40;99.90;;;;;;5048053;28;20045;-64
2022/08/06 06:25:32;;;;;;;13.68;7.80;;;13.50;99.90;;;;;;5052035;28;20044;-64
2022/08/06 06:28:13;;;;;;;9.35;6.68;;;13.60;99.90;;;;;;5048607;28;20539;-63
2022/08/06 06:30:58;;;;;;;12.15;5.35;;;13.70;99.90;;;;;;5052133;28;20484;-64
2022/08/06 06:33:42;;;;;;;5.95;3.58;;;13.90;99.90;;;;;;5044898;28;20504;-64
2022/08/06 06:36:22;;;;;;;7.68;3.10;;;14.10;99.90;;;;;;5058770;28;20040;-64
2022/08/06 06:39:05;;;;;;;3.57;2.87;;;14.20;99.90;;;;;;5052182;28;20052;-64
2022/08/06 06:41:45;;;;;;;7.22;2.75;;;14.40;99.90;;;;;;5034420;28;20287;-64
2022/08/06 06:44:45;;;;;;;3.97;2.40;;;14.60;99.90;;;;;;5053718;28;20452;-65
2022/08/06 06:47:49;;;;;;;6.40;2.22;;;14.60;99.90;;;;;;4991641;28;20072;-65
2022/08/06 06:50:29;;;;;;;4.40;2.10;;;14.80;99.90;;;;;;5047878;28;20033;-66
2022/08/06 06:52:56;;;;;;;2.97;2.05;;;14.80;99.90;;;;;;5049765;28;20091;-65
2022/08/06 06:55:35;;;;;;;2.53;1.70;;;14.90;99.90;;;;;;5052074;28;20067;-67
2022/08/06 06:58:20;;;;;;;4.18;1.85;;;15.00;99.90;;;;;;5052202;28;20040;-65
2022/08/06 07:00:47;;;;;;;4.60;2.03;;;15.10;99.90;;;;;;5040359;28;20064;-66
2022/08/06 07:03:14;;;;;;;3.20;1.45;;;15.20;99.90;;;;;;5058993;28;20044;-65
2022/08/06 07:05:43;;;;;;;2.63;1.60;;;15.30;99.90;;;;;;5051942;28;20056;-64
2022/08/06 07:08:11;;;;;;;4.60;1.42;;;15.40;99.90;;;;;;5037282;28;20037;-65
2022/08/06 07:10:39;;;;;;;3.40;1.33;;;15.40;99.90;;;;;;5031087;28;20033;-65
2022/08/06 07:13:07;;;;;;;1.90;1.48;;;15.50;99.90;;;;;;5049527;28;20395;-64
2022/08/06 07:15:34;;;;;;;2.08;1.25;;;15.60;99.90;;;;;;5051373;28;20041;-64
2022/08/06 07:18:02;;;;;;;2.92;1.58;;;15.70;99.90;;;;;;5046347;28;20128;-64
2022/08/06 07:20:30;;;;;;;2.25;1.00;;;15.80;99.90;;;;;;5051226;28;20048;-64
2022/08/06 07:22:59;;;;;;;2.25;1.13;;;15.90;99.90;;;;;;5051411;28;20037;-64
2022/08/06 07:25:26;;;;;;;1.88;1.10;;;16.10;99.90;;;;;;5040007;28;20036;-64
2022/08/06 07:27:52;;;;;;;2.33;1.30;;;16.20;99.90;;;;;;5050159;28;20033;-64
2022/08/06 07:30:20;;;;;;;3.53;1.27;;;16.20;99.90;;;;;;5032715;28;20041;-64
2022/08/06 07:32:48;;;;;;;3.45;1.10;;;16.30;99.90;;;;;;5047376;28;20044;-64
2022/08/06 07:35:16;;;;;;;2.33;1.00;;;16.30;99.90;;;;;;5041396;28;20545;-64
2022/08/06 07:37:48;;;;;;;2.40;1.10;;;16.40;99.90;;;;;;5049638;28;20041;-64
2022/08/06 07:40:32;;;;;;;2.45;1.10;;;16.40;99.90;;;;;;5048015;28;20048;-64
2022/08/06 07:43:22;;;;;;;1.55;1.23;;;16.50;99.90;;;;;;5039114;28;20538;-64
2022/08/06 07:45:51;;;;;;;3.43;1.40;;;16.50;99.90;;;;;;5042414;28;20057;-64
2022/08/06 07:48:21;;;;;;;3.08;1.10;;;16.60;99.90;;;;;;5049702;28;20295;-64
2022/08/06 07:50:50;;;;;;;3.80;1.00;;;16.70;99.90;;;;;;5049834;28;20047;-65
2022/08/06 07:53:19;;;;;;;2.80;1.20;;;16.70;99.90;;;;;;5048934;28;20037;-65
2022/08/06 07:55:46;;;;;;;2.10;1.00;;;16.80;99.90;;;;;;5048961;28;20474;-64
2022/08/06 07:58:12;;;;;;;3.10;1.10;;;16.80;99.90;;;;;;5054903;28;20044;-64
2022/08/06 08:00:39;;;;;;;2.15;1.27;;;16.90;99.90;;;;;;5044842;28;20040;-64
2022/08/06 08:08:35;;;;;;;4.30;1.30;;;17.20;99.90;;;;;;5048498;28;20045;-64
2022/08/06 08:11:01;;;;;;;4.50;1.15;;;17.20;99.90;;;;;;5052374;28;20045;-64
2022/08/06 08:13:27;;;;;;;1.92;1.33;;;17.20;99.90;;;;;;5049684;28;20112;-64
2022/08/06 08:15:55;;;;;;;3.17;1.38;;;17.40;99.90;;;;;;5050849;28;20055;-64
2022/08/06 08:18:27;;;;;;;4.18;2.20;;;17.50;99.90;;;;;;5044263;28;20492;-64
2022/08/06 08:20:54;;;;;;;1.77;1.30;;;17.50;99.90;;;;;;5048524;28;20056;-64
2022/08/06 08:23:20;;;;;;;3.60;1.42;;;17.50;99.90;;;;;;5049332;28;20040;-64
2022/08/06 08:25:46;;;;;;;3.00;1.20;;;17.70;99.90;;;;;;5049707;28;20045;-64
2022/08/06 08:28:12;;;;;;;3.13;1.20;;;18.00;99.90;;;;;;5048991;28;20044;-64
2022/08/06 08:30:41;;;;;;;2.58;1.23;;;18.00;99.90;;;;;;5043263;28;20040;-65
2022/08/06 08:33:07;;;;;;;2.58;1.10;;;18.20;99.90;;;;;;5049147;28;20487;-64
2022/08/06 08:35:33;;;;;;;2.63;0.90;;;18.30;99.90;;;;;;5049619;28;20048;-65
2022/08/06 08:37:58;;;;;;;7.13;1.35;;;18.10;99.90;;;;;;5050096;28;20045;-64
2022/08/06 08:40:25;;;;;;;2.75;1.30;;;18.00;99.90;;;;;;5045667;28;20048;-64
2022/08/06 08:42:53;;;;;;;2.13;1.00;;;17.90;99.90;;;;;;5040094;28;20037;-64
2022/08/06 08:45:20;;;;;;;2.80;1.10;;;17.60;99.90;;;;;;5048825;28;20110;-64
2022/08/06 08:47:50;;;;;;;4.07;1.30;;;17.70;99.90;;;;;;5045864;28;20041;-64
2022/08/06 08:50:18;;;;;;;3.47;1.30;;;17.80;99.90;;;;;;5048815;28;20175;-64
2022/08/06 08:52:47;;;;;;;3.55;1.20;;;17.90;99.90;;;;;;5048778;28;20506;-64
2022/08/06 08:55:16;;;;;;;2.58;1.20;;;18.10;99.90;;;;;;5047049;28;20060;-65
2022/08/06 08:57:42;;;;;;;3.03;1.00;;;18.20;99.90;;;;;;5049172;28;20447;-65
2022/08/06 09:00:08;;;;;;;3.90;1.00;;;18.30;99.90;;;;;;5052469;28;20129;-64
2022/08/06 09:02:36;;;;;;;2.53;1.30;;;18.50;99.90;;;;;;5069560;28;20402;-65
2022/08/06 09:05:02;;;;;;;2.25;1.10;;;18.40;99.90;;;;;;5033225;28;20057;-64
2022/08/06 09:07:28;;;;;;;2.40;1.00;;;18.40;99.90;;;;;;5052529;28;20159;-65
2022/08/06 09:09:55;;;;;;;2.05;1.30;;;18.50;99.90;;;;;;5052934;28;20094;-65
2022/08/06 09:12:22;;;;;;;3.53;1.23;;;18.80;99.90;;;;;;5053605;28;20043;-64
2022/08/06 09:14:47;;;;;;;4.03;1.00;;;18.90;99.90;;;;;;5044293;28;20119;-65
2022/08/06 09:17:13;;;;;;;3.08;1.00;;;18.90;99.90;;;;;;5043466;28;20476;-64
2022/08/06 09:19:39;;;;;;;2.08;1.10;;;18.90;99.90;;;;;;5057827;28;20035;-65
2022/08/06 09:22:06;;;;;;;2.00;1.20;;;19.00;99.90;;;;;;5054865;28;20041;-64
2022/08/06 09:24:32;;;;;;;2.75;1.10;;;19.10;99.90;;;;;;5034876;28;20044;-64
2022/08/06 09:27:28;;;;;;;2.03;1.20;;;19.30;99.90;;;;;;5052450;28;20492;-64
2022/08/06 09:29:59;;;;;;;1.95;0.98;;;19.50;99.90;;;;;;5048141;28;20057;-64
2022/08/06 09:32:42;;;;;;;2.30;0.93;;;19.30;99.50;;;;;;5049288;28;20037;-65
2022/08/06 09:35:26;;;;;;;2.75;1.10;;;18.80;96.80;;;;;;5051387;28;20083;-64
2022/08/06 09:38:08;;;;;;;1.50;1.10;;;18.60;98.80;;;;;;5053916;28;20419;-64
2022/08/06 09:40:34;;;;;;;1.50;1.13;;;18.60;99.40;;;;;;5059653;28;20032;-64
2022/08/06 09:43:00;;;;;;;3.13;1.10;;;18.80;99.90;;;;;;5050658;28;20391;-65
2022/08/06 09:45:26;;;;;;;2.83;1.20;;;19.10;99.90;;;;;;5051863;28;20060;-64
2022/08/06 09:48:07;;;;;;;2.63;1.30;;;19.30;99.60;;;;;;5050486;28;20033;-64
2022/08/06 09:50:42;;;;;;;5.13;1.48;;;19.60;98.50;;;;;;5049705;28;20040;-65
2022/08/06 09:53:08;;;;;;;1.73;1.10;;;19.90;98.50;;;;;;5052548;28;20033;-65
2022/08/06 09:55:35;;;;;;;2.47;1.55;;;19.90;98.90;;;;;;5039447;28;20037;-64
2022/08/06 09:58:01;;;;;;;3.35;1.33;;;19.80;98.90;;;;;;5048803;28;20053;-64
2022/08/06 10:00:32;;;;;;;7.32;1.70;;;19.70;98.50;;;;;;5034112;28;20045;-64
2022/08/06 10:03:08;;;;;;;1.90;1.70;;;19.70;97.90;;;;;;5052160;28;20033;-65
2022/08/06 10:05:35;;;;;;;3.15;2.28;;;19.90;96.40;;;;;;5055479;28;20122;-64
2022/08/06 10:08:09;;;;;;;3.65;1.95;;;20.20;96.80;;;;;;5052831;28;20045;-64
2022/08/06 10:10:50;;;;;;;2.50;1.80;;;20.50;95.20;;;;;;5049568;28;20049;-65
2022/08/06 10:13:26;;;;;;;2.63;1.75;;;20.50;94.20;;;;;;5053310;28;20048;-64
2022/08/06 10:15:55;;;;;;;2.83;1.95;;;20.70;95.80;;;;;;5053320;28;20487;-65
2022/08/06 10:18:37;;;;;;;2.55;1.77;;;20.50;96.70;;;;;;5051439;28;20163;-65
2022/08/06 10:21:05;;;;;;;3.88;1.90;;;20.30;95.70;;;;;;5050780;28;20037;-64
2022/08/06 10:23:33;;;;;;;5.07;1.98;;;20.40;97.00;;;;;;5045823;28;20068;-65
2022/08/06 10:26:00;;;;;;;3.10;2.22;;;20.70;96.90;;;;;;5037846;28;20053;-64
2022/08/06 10:28:27;;;;;;;3.97;2.10;;;20.80;96.10;;;;;;5047227;28;20514;-64
2022/08/06 10:30:54;;;;;;;3.60;1.92;;;20.90;95.60;;;;;;5056715;28;20056;-64
2022/08/06 10:33:23;;;;;;;4.15;2.13;;;21.20;95.60;;;;;;5051499;28;20210;-64
2022/08/06 10:35:54;;;;;;;3.50;2.08;;;21.30;94.30;;;;;;5053437;28;20075;-64
2022/08/06 10:38:23;;;;;;;4.38;2.20;;;21.60;93.70;;;;;;5051046;28;20037;-65
2022/08/06 10:40:51;;;;;;;3.58;2.17;;;21.50;93.70;;;;;;5050832;28;20407;-65
2022/08/06 10:43:18;;;;;;;2.72;2.05;;;21.20;94.70;;;;;;5051258;28;20411;-65
2022/08/06 10:45:44;;;;;;;5.75;2.33;;;20.90;94.20;;;;;;5038090;28;20470;-64
2022/08/06 10:48:11;;;;;;;5.53;2.10;;;20.80;94.50;;;;;;5050390;28;20609;-65
2022/08/06 10:50:38;;;;;;;6.15;2.30;;;21.00;94.60;;;;;;5045650;28;20033;-64
2022/08/06 10:53:05;;;;;;;3.58;2.10;;;21.20;94.40;;;;;;5049904;28;20048;-64
2022/08/06 10:55:31;;;;;;;4.13;2.20;;;21.30;93.40;;;;;;5051193;28;20462;-64
2022/08/06 10:57:58;;;;;;;3.00;2.20;;;21.40;92.90;;;;;;5053709;28;20040;-65
2022/08/06 11:00:27;;;;;;;5.00;2.33;;;21.50;91.80;;;;;;5055729;28;20036;-64
2022/08/06 11:03:16;;;;;;;4.70;2.20;;;21.40;90.70;;;;;;5047441;28;20045;-64
2022/08/06 11:05:47;;;;;;;3.72;2.10;;;21.60;91.90;;;;;;5050880;28;20029;-64
2022/08/06 11:08:41;;;;;;;5.28;2.40;;;22.00;91.50;;;;;;5050966;28;20041;-64
2022/08/06 11:11:16;;;;;;;2.92;2.30;;;22.20;89.00;;;;;;5057493;28;20055;-64
2022/08/06 11:14:00;;;;;;;3.03;2.30;;;22.30;91.30;;;;;;5046556;28;20041;-65
2022/08/06 11:16:29;;;;;;;5.57;2.45;;;22.20;87.70;;;;;;5050959;28;20041;-64
2022/08/06 11:19:09;;;;;;;4.13;2.28;;;21.70;90.80;;;;;;5043945;28;20041;-64
2022/08/06 11:21:45;;;;;;;4.30;2.40;;;21.40;87.20;;;;;;5049511;28;20434;-64
2022/08/06 11:24:13;;;;;;;5.88;2.60;;;21.30;87.50;;;;;;5051028;28;20064;-64
2022/08/06 11:26:40;;;;;;;2.67;2.15;;;21.60;90.30;;;;;;5062694;28;20036;-65
2022/08/06 11:29:11;;;;;;;3.85;2.00;;;21.90;88.60;;;;;;5057625;28;20041;-65
2022/08/06 11:31:39;;;;;;;;;;;22.00;85.20;;;;;;5050532;28;20041;-64
2022/08/06 11:34:10;;;;;;;3.53;2.63;;;22.20;75.80;;;;;;5047182;28;19967;-64
2022/08/06 11:36:46;;;;;;;2.92;2.30;;;21.70;85.50;;;;;;5050146;28;20044;-64
2022/08/06 11:39:12;;;;;;;4.63;2.50;;;21.00;86.10;;;;;;5070437;28;20036;-65
2022/08/06 11:41:55;;;;;;;7.45;2.10;;;20.60;90.60;;;;;;5066534;28;20037;-64
2022/08/06 11:44:27;;;;;;;3.83;2.13;;;20.30;90.80;;;;;;5047234;28;20033;-65
2022/08/06 11:47:12;;;;;;;4.45;2.25;;;20.10;91.80;;;;;;5050402;28;20072;-64
2022/08/06 11:49:46;;;;;;;4.18;2.35;;;19.90;91.20;;;;;;5050333;28;20041;-64
2022/08/06 11:52:31;;;;;;;4.65;2.30;;;20.00;92.50;;;;;;5045062;28;20025;-64
2022/08/06 11:55:04;;;;;;;2.95;2.10;;;20.00;92.40;;;;;;5050030;28;20036;-64
2022/08/06 11:57:31;;;;;;;3.83;2.08;;;19.90;93.50;;;;;;5048359;28;20045;-64
2022/08/06 11:59:56;;;;;;;4.38;2.10;;;19.90;94.20;;;;;;5049390;28;20454;-63
2022/08/06 12:02:45;;;;;;;3.55;2.05;;;20.10;94.40;;;;;;5049531;28;20029;-64
2022/08/06 12:05:14;;;;;;;4.45;2.22;;;20.20;93.60;;;;;;5050296;28;20099;-64
2022/08/06 12:07:44;;;;;;;3.00;2.15;;;20.80;94.50;;;;;;5047903;28;20080;-65
2022/08/06 12:10:12;;;;;;;3.63;2.30;;;21.30;94.10;;;;;;5048721;28;20041;-64
2022/08/06 12:12:45;;;;;;;3.75;2.00;;;21.60;93.60;;;;;;5049590;28;20052;-64
2022/08/06 12:15:16;;;;;;;3.13;2.45;;;21.60;92.60;;;;;;5049996;28;20033;-64
2022/08/06 12:17:59;;;;;;;3.80;2.15;;;21.80;92.20;;;;;;5040604;28;20044;-64
2022/08/06 12:20:33;;;;;;;3.55;1.90;;;21.70;91.00;;;;;;5055092;28;20036;-65
2022/08/06 12:22:59;;;;;;;2.97;1.88;;;21.60;91.50;;;;;;5049686;28;20122;-65
2022/08/06 12:25:33;;;;;;;3.00;2.03;;;21.60;91.90;;;;;;5048430;28;20079;-64
2022/08/06 12:27:59;;;;;;;4.40;2.10;;;21.50;91.40;;;;;;5055171;28;20037;-65
2022/08/06 12:30:25;;;;;;;3.22;2.00;;;21.60;92.50;;;;;;5049698;28;20120;-64
2022/08/06 12:33:00;;;;;;;4.70;2.33;;;21.60;92.10;;;;;;5049045;28;20204;-65
2022/08/06 12:35:26;;;;;;;4.20;2.05;;;21.70;91.50;;;;;;5050435;28;20098;-65
2022/08/06 12:37:52;;;;;;;4.75;2.00;;;21.70;91.50;;;;;;5049583;28;20064;-65
2022/08/06 12:40:29;;;;;;;3.90;2.05;;;21.70;91.00;;;;;;5053028;28;20041;-65
2022/08/06 12:43:01;;;;;;;2.90;2.00;;;21.70;90.00;;;;;;5052775;28;20071;-64
2022/08/06 12:45:32;;;;;;;3.83;2.15;;;21.60;89.40;;;;;;5053234;28;20554;-64
2022/08/06 12:48:01;;;;;;;2.25;1.98;;;21.60;90.10;;;;;;5052771;28;20080;-65
2022/08/06 12:50:28;;;;;;;2.95;2.10;;;21.70;90.10;;;;;;5047031;28;20060;-64
2022/08/06 12:53:16;;;;;;;3.60;1.90;;;21.70;89.50;;;;;;5050407;28;21422;-65
2022/08/06 12:55:41;;;;;;;3.35;2.00;;;21.40;84.60;;;;;;5057137;28;20426;-64
2022/08/06 12:58:09;;;;;;;3.70;2.30;;;21.50;90.20;;;;;;5055940;28;20127;-64
2022/08/06 13:00:36;;;;;;;3.65;1.92;;;21.50;87.20;;;;;;5054820;28;20040;-65
2022/08/06 13:03:05;;;;;;;3.65;2.03;;;21.60;88.70;;;;;;5052426;28;20099;-65
2022/08/06 13:05:32;;;;;;;2.25;1.83;;;21.70;87.90;;;;;;5038833;28;20707;-65
2022/08/06 13:07:58;;;;;;;4.72;2.08;;;21.80;87.60;;;;;;5047748;28;20048;-64
2022/08/06 13:10:24;;;;;;;4.20;2.05;;;21.90;87.50;;;;;;5052821;28;20029;-64